Time,TemperatureF,DewpointF,PressureIn,WindDirection,WindDirectionDegrees,WindSpeedMPH,WindSpeedGustMPH,Humidity,HourlyPrecipIn,Conditions,Clouds,dailyrainin,SoftwareType,DateUTC
2013-02-12 00:13:00,41.5,38.0,30.17,NW,314,0.0,-999.0,87,-99.99,,,0.00,weatherlink.com 1.10,2013-02-12 08:13:00,
2013-02-12 00:28:00,41.7,38.0,30.17,NW,314,0.0,-999.0,88,-99.99,,,0.00,weatherlink.com 1.10,2013-02-12 08:28:00,
2013-02-12 00:43:00,41.4,38.0,30.17,NW,314,0.0,-999.0,88,-99.99,,,0.00,weatherlink.com 1.10,2013-02-12 08:43:00,
2013-02-12 00:58:00,41.4,38.0,30.18,NW,314,0.0,-999.0,88,-99.99,,,0.00,weatherlink.com 1.10,2013-02-12 08:58:00,
2013-02-12 01:13:00,41.0,38.0,30.17,NW,314,0.0,-999.0,88,-99.99,,,0.00,weatherlink.com 1.10,2013-02-12 09:13:00,
2013-02-12 01:28:00,40.9,38.0,30.18,NW,314,0.0,-999.0,89,-99.99,,,0.00,weatherlink.com 1.10,2013-02-12 09:28:00,
2013-02-12 01:43:00,40.5,38.0,30.18,NW,314,0.0,-999.0,89,-99.99,,,0.00,weatherlink.com 1.10,2013-02-12 09:43:00,
2013-02-12 01:58:00,39.7,37.0,30.18,NW,314,0.0,-999.0,89,-99.99,,,0.00,weatherlink.com 1.10,2013-02-12 09:58:00,
2013-02-12 02:13:00,39.2,36.0,30.18,NW,314,0.0,-999.0,89,-99.99,,,0.00,weatherlink.com 1.10,2013-02-12 10:13:00,
2013-02-12 02:28:00,39.1,37.0,30.18,NW,314,0.0,-999.0,90,-99.99,,,0.00,weatherlink.com 1.10,2013-02-12 10:28:00,
2013-02-12 02:44:00,39.2,37.0,30.18,NW,314,0.0,-999.0,90,-99.99,,,0.00,weatherlink.com 1.10,2013-02-12 10:44:00,
2013-02-12 02:58:00,38.8,36.0,30.18,NW,314,0.0,-999.0,90,-99.99,,,0.00,weatherlink.com 1.10,2013-02-12 10:58:00,
2013-02-12 03:13:00,38.5,36.0,30.18,NW,314,0.0,-999.0,90,-99.99,,,0.00,weatherlink.com 1.10,2013-02-12 11:13:00,
2013-02-12 03:28:00,38.2,36.0,30.18,NW,314,0.0,-999.0,90,-99.99,,,0.00,weatherlink.com 1.10,2013-02-12 11:28:00,
2013-02-12 03:43:00,38.1,36.0,30.18,NW,314,0.0,-999.0,91,-99.99,,,0.00,weatherlink.com 1.10,2013-02-12 11:43:00,
2013-02-12 04:00:00,37.8,36.0,30.19,NW,314,0.0,-999.0,91,-99.99,,,0.00,weatherlink.com 1.10,2013-02-12 12:00:00,
2013-02-12 04:13:00,37.6,35.0,30.19,NW,314,0.0,-999.0,91,-99.99,,,0.00,weatherlink.com 1.10,2013-02-12 12:13:00,
2013-02-12 04:29:00,37.4,35.0,30.19,NW,314,0.0,-999.0,91,-99.99,,,0.00,weatherlink.com 1.10,2013-02-12 12:29:00,
2013-02-12 04:44:00,36.9,35.0,30.20,NW,314,0.0,-999.0,91,-99.99,,,0.00,weatherlink.com 1.10,2013-02-12 12:44:00,
2013-02-12 04:58:00,36.3,34.0,30.20,NW,314,0.0,-999.0,91,-99.99,,,0.00,weatherlink.com 1.10,2013-02-12 12:58:00,
2013-02-12 05:13:00,36.1,34.0,30.21,NW,314,0.0,-999.0,91,-99.99,,,0.00,weatherlink.com 1.10,2013-02-12 13:13:00,
2013-02-12 05:28:00,35.9,34.0,30.21,NW,314,0.0,-999.0,91,-99.99,,,0.00,weatherlink.com 1.10,2013-02-12 13:28:00,
2013-02-12 05:43:00,36.2,34.0,30.22,NW,314,0.0,-999.0,91,-99.99,,,0.00,weatherlink.com 1.10,2013-02-12 13:43:00,
2013-02-12 05:58:00,36.4,34.0,30.22,NW,314,0.0,-999.0,92,-99.99,,,0.00,weatherlink.com 1.10,2013-02-12 13:58:00,
2013-02-12 06:14:00,36.1,34.0,30.22,NW,314,0.0,-999.0,92,-99.99,,,0.00,weatherlink.com 1.10,2013-02-12 14:14:00,
2013-02-12 06:28:00,36.1,34.0,30.22,NW,314,0.0,-999.0,92,-99.99,,,0.00,weatherlink.com 1.10,2013-02-12 14:28:00,
2013-02-12 06:44:00,36.0,34.0,30.23,NW,314,0.0,-999.0,92,-99.99,,,0.00,weatherlink.com 1.10,2013-02-12 14:44:00,
2013-02-12 06:59:00,36.2,34.0,30.24,NW,314,0.0,-999.0,92,-99.99,,,0.00,weatherlink.com 1.10,2013-02-12 14:59:00,
2013-02-12 07:14:00,36.8,35.0,30.25,NW,314,0.0,-999.0,92,-99.99,,,0.00,weatherlink.com 1.10,2013-02-12 15:14:00,
2013-02-12 07:29:00,38.7,37.0,30.25,NE,53,0.0,-999.0,93,-99.99,,,0.00,weatherlink.com 1.10,2013-02-12 15:29:00,
2013-02-12 07:44:00,40.7,39.0,30.26,NE,53,1.0,-999.0,93,-99.99,,,0.00,weatherlink.com 1.10,2013-02-12 15:44:00,
2013-02-12 07:59:00,42.9,41.0,30.26,ENE,68,2.0,-999.0,91,-99.99,,,0.00,weatherlink.com 1.10,2013-02-12 15:59:00,
2013-02-12 08:14:00,45.8,41.0,30.26,East,84,0.0,-999.0,84,-99.99,,,0.00,weatherlink.com 1.10,2013-02-12 16:14:00,
2013-02-12 08:29:00,48.5,40.0,30.27,ESE,102,3.0,-999.0,73,-99.99,,,0.00,weatherlink.com 1.10,2013-02-12 16:29:00,
2013-02-12 08:44:00,50.5,40.0,30.28,NNE,21,2.0,-999.0,67,-99.99,,,0.00,weatherlink.com 1.10,2013-02-12 16:44:00,
2013-02-12 08:59:00,52.6,39.0,30.28,ENE,76,3.0,-999.0,60,-99.99,,,0.00,weatherlink.com 1.10,2013-02-12 16:59:00,
2013-02-12 09:29:00,55.4,40.0,30.28,ESE,102,2.0,-999.0,56,-99.99,,,0.00,weatherlink.com 1.10,2013-02-12 17:29:00,
2013-02-12 09:45:00,56.7,41.0,30.28,ESE,102,0.0,-999.0,56,-99.99,,,0.00,weatherlink.com 1.10,2013-02-12 17:45:00,
2013-02-12 10:00:00,56.6,42.0,30.28,SSW,194,0.0,-999.0,58,-99.99,,,0.00,weatherlink.com 1.10,2013-02-12 18:00:00,
2013-02-12 10:15:00,57.9,45.0,30.28,WSW,243,1.0,-999.0,63,-99.99,,,0.00,weatherlink.com 1.10,2013-02-12 18:15:00,
2013-02-12 10:30:00,59.1,46.0,30.28,South,190,2.0,-999.0,63,-99.99,,,0.00,weatherlink.com 1.10,2013-02-12 18:30:00,
2013-02-12 10:45:00,59.2,46.0,30.27,SW,225,0.0,-999.0,61,-99.99,,,0.00,weatherlink.com 1.10,2013-02-12 18:45:00,
2013-02-12 11:00:00,60.6,46.0,30.27,NW,313,0.0,-999.0,59,-99.99,,,0.00,weatherlink.com 1.10,2013-02-12 19:00:00,
2013-02-12 11:15:00,61.3,46.0,30.26,NNW,346,0.0,-999.0,57,-99.99,,,0.00,weatherlink.com 1.10,2013-02-12 19:15:00,
2013-02-12 11:30:00,61.8,47.0,30.25,ESE,110,4.0,-999.0,58,-99.99,,,0.00,weatherlink.com 1.10,2013-02-12 19:30:00,
2013-02-12 11:45:00,62.2,47.0,30.25,SSW,206,1.0,-999.0,59,-99.99,,,0.00,weatherlink.com 1.10,2013-02-12 19:45:00,
2013-02-12 12:00:00,63.1,46.0,30.23,West,272,3.0,-999.0,55,-99.99,,,0.00,weatherlink.com 1.10,2013-02-12 20:00:00,
2013-02-12 12:16:00,63.0,47.0,30.23,SW,229,6.0,-999.0,56,-99.99,,,0.00,weatherlink.com 1.10,2013-02-12 20:16:00,
2013-02-12 12:30:00,64.0,47.0,30.22,West,259,3.0,-999.0,54,-99.99,,,0.00,weatherlink.com 1.10,2013-02-12 20:30:00,
2013-02-12 12:45:00,63.2,45.0,30.22,NW,310,0.0,-999.0,52,-99.99,,,0.00,weatherlink.com 1.10,2013-02-12 20:45:00,
2013-02-12 13:00:00,64.0,46.0,30.21,WSW,254,4.0,-999.0,52,-99.99,,,0.00,weatherlink.com 1.10,2013-02-12 21:00:00,
2013-02-12 13:15:00,63.7,46.0,30.20,West,262,6.0,-999.0,53,-99.99,,,0.00,weatherlink.com 1.10,2013-02-12 21:15:00,
2013-02-12 13:30:00,63.1,45.0,30.20,WSW,249,1.0,-999.0,52,-99.99,,,0.00,weatherlink.com 1.10,2013-02-12 21:30:00,
2013-02-12 13:45:00,62.9,45.0,30.20,WSW,237,4.0,-999.0,53,-99.99,,,0.00,weatherlink.com 1.10,2013-02-12 21:45:00,
2013-02-12 14:00:00,64.1,45.0,30.19,West,261,0.0,-999.0,50,-99.99,,,0.00,weatherlink.com 1.10,2013-02-12 22:00:00,
2013-02-12 14:16:00,63.0,43.0,30.19,West,259,6.0,-999.0,49,-99.99,,,0.00,weatherlink.com 1.10,2013-02-12 22:16:00,
2013-02-12 14:30:00,63.5,45.0,30.18,WSW,246,5.0,-999.0,51,-99.99,,,0.00,weatherlink.com 1.10,2013-02-12 22:30:00,
2013-02-12 14:45:00,62.8,45.0,30.18,SSW,211,6.0,-999.0,53,-99.99,,,0.00,weatherlink.com 1.10,2013-02-12 22:45:00,
2013-02-12 15:00:00,63.2,44.0,30.17,SW,236,4.0,-999.0,49,-99.99,,,0.00,weatherlink.com 1.10,2013-02-12 23:00:00,
2013-02-12 15:15:00,62.8,42.0,30.17,SW,214,3.0,-999.0,46,-99.99,,,0.00,weatherlink.com 1.10,2013-02-12 23:15:00,
2013-02-12 15:30:00,63.6,42.0,30.17,SSW,192,3.0,-999.0,45,-99.99,,,0.00,weatherlink.com 1.10,2013-02-12 23:30:00,
2013-02-12 15:45:00,63.3,42.0,30.17,WSW,238,4.0,-999.0,46,-99.99,,,0.00,weatherlink.com 1.10,2013-02-12 23:45:00,
2013-02-12 16:00:00,63.5,42.0,30.17,NNW,329,2.0,-999.0,45,-99.99,,,0.00,weatherlink.com 1.10,2013-02-13 00:00:00,
2013-02-12 16:15:00,61.8,38.0,30.17,NW,309,0.0,-999.0,41,-99.99,,,0.00,weatherlink.com 1.10,2013-02-13 00:15:00,
2013-02-12 16:30:00,60.9,34.0,30.17,NNW,336,2.0,-999.0,37,-99.99,,,0.00,weatherlink.com 1.10,2013-02-13 00:30:00,
2013-02-12 16:45:00,60.2,35.0,30.17,NW,308,1.0,-999.0,39,-99.99,,,0.00,weatherlink.com 1.10,2013-02-13 00:45:00,
2013-02-12 17:00:00,59.8,34.0,30.17,NW,308,2.0,-999.0,38,-99.99,,,0.00,weatherlink.com 1.10,2013-02-13 01:00:00,
2013-02-12 17:15:00,59.3,33.0,30.17,NE,34,0.0,-999.0,38,-99.99,,,0.00,weatherlink.com 1.10,2013-02-13 01:15:00,
2013-02-12 17:30:00,58.5,33.0,30.17,NW,319,0.0,-999.0,39,-99.99,,,0.00,weatherlink.com 1.10,2013-02-13 01:30:00,
2013-02-12 17:45:00,57.4,34.0,30.17,NW,319,1.0,-999.0,41,-99.99,,,0.00,weatherlink.com 1.10,2013-02-13 01:45:00,
2013-02-12 18:00:00,56.4,37.0,30.18,NW,319,1.0,-999.0,48,-99.99,,,0.00,weatherlink.com 1.10,2013-02-13 02:00:00,
2013-02-12 18:15:00,55.7,40.0,30.18,NW,319,1.0,-999.0,55,-99.99,,,0.00,weatherlink.com 1.10,2013-02-13 02:15:00,
2013-02-12 18:30:00,55.1,41.0,30.18,NW,319,0.0,-999.0,60,-99.99,,,0.00,weatherlink.com 1.10,2013-02-13 02:30:00,
2013-02-12 18:45:00,54.6,42.0,30.19,WNW,297,0.0,-999.0,62,-99.99,,,0.00,weatherlink.com 1.10,2013-02-13 02:45:00,
2013-02-12 19:00:00,53.8,42.0,30.19,WNW,297,0.0,-999.0,64,-99.99,,,0.00,weatherlink.com 1.10,2013-02-13 03:00:00,
2013-02-12 19:16:00,53.3,43.0,30.19,WNW,298,0.0,-999.0,69,-99.99,,,0.00,weatherlink.com 1.10,2013-02-13 03:16:00,
2013-02-12 19:30:00,52.9,43.0,30.19,WNW,298,0.0,-999.0,70,-99.99,,,0.00,weatherlink.com 1.10,2013-02-13 03:30:00,
2013-02-12 19:45:00,51.8,43.0,30.19,WNW,298,0.0,-999.0,72,-99.99,,,0.00,weatherlink.com 1.10,2013-02-13 03:45:00,
2013-02-12 20:00:00,51.1,44.0,30.19,WNW,298,0.0,-999.0,76,-99.99,,,0.00,weatherlink.com 1.10,2013-02-13 04:00:00,
2013-02-12 20:15:00,50.6,44.0,30.20,WNW,298,0.0,-999.0,77,-99.99,,,0.00,weatherlink.com 1.10,2013-02-13 04:15:00,
2013-02-12 20:30:00,49.8,43.0,30.20,WNW,298,0.0,-999.0,78,-99.99,,,0.00,weatherlink.com 1.10,2013-02-13 04:30:00,
2013-02-12 20:45:00,49.0,43.0,30.20,WNW,298,0.0,-999.0,80,-99.99,,,0.00,weatherlink.com 1.10,2013-02-13 04:45:00,
2013-02-12 21:00:00,48.2,43.0,30.20,WNW,298,0.0,-999.0,81,-99.99,,,0.00,weatherlink.com 1.10,2013-02-13 05:00:00,
2013-02-12 21:15:00,47.4,42.0,30.20,WNW,298,0.0,-999.0,81,-99.99,,,0.00,weatherlink.com 1.10,2013-02-13 05:15:00,
2013-02-12 21:30:00,46.7,42.0,30.21,WNW,298,0.0,-999.0,83,-99.99,,,0.00,weatherlink.com 1.10,2013-02-13 05:30:00,
2013-02-12 21:45:00,46.1,41.0,30.21,WNW,298,0.0,-999.0,83,-99.99,,,0.00,weatherlink.com 1.10,2013-02-13 05:45:00,
2013-02-12 22:00:00,45.4,41.0,30.20,WNW,298,0.0,-999.0,84,-99.99,,,0.00,weatherlink.com 1.10,2013-02-13 06:00:00,
2013-02-12 22:16:00,45.1,41.0,30.20,WNW,298,0.0,-999.0,85,-99.99,,,0.00,weatherlink.com 1.10,2013-02-13 06:16:00,
2013-02-12 22:30:00,45.1,41.0,30.20,WNW,298,0.0,-999.0,86,-99.99,,,0.00,weatherlink.com 1.10,2013-02-13 06:30:00,
2013-02-12 22:45:00,44.8,41.0,30.20,WNW,298,0.0,-999.0,87,-99.99,,,0.00,weatherlink.com 1.10,2013-02-13 06:45:00,
2013-02-12 23:00:00,44.4,41.0,30.20,WNW,298,0.0,-999.0,86,-99.99,,,0.00,weatherlink.com 1.10,2013-02-13 07:00:00,
2013-02-12 23:15:00,44.4,41.0,30.20,WNW,298,0.0,-999.0,87,-99.99,,,0.00,weatherlink.com 1.10,2013-02-13 07:15:00,
2013-02-12 23:30:00,44.0,41.0,30.20,WNW,298,0.0,-999.0,88,-99.99,,,0.00,weatherlink.com 1.10,2013-02-13 07:30:00,
2013-02-12 23:46:00,43.7,40.0,30.20,WNW,298,0.0,-999.0,88,-99.99,,,0.00,weatherlink.com 1.10,2013-02-13 07:46:00,